Toronto Islands, Canada
Current Conditions -  °F | °C
As of 12:35 AM on Sunday 23 Nov 2014 (Local Time) from CYTZ Reporting Station
Haze Haze  
Wind Chill: 35°   Ceiling: 4100
Heat Index: 43°   Visibility: 6mi
Dew Point: 41°   Wind: 17mph
Humidity: 93%   Direction: 230°SW
Pressure: 29.94"   Gusts: NA
Location:  43.62°N, 79.38°W
Report Text: CYTZ 230535Z AUTO 23015KT 6SM BR SCT015 OVC041 06/05 A2994 RMK SLP143
Loading
Personal Weather Stations






























Interactive Weather Map New forecast layout! Learn more

10-Day Weather Forecast

Advertisements
Track Severe Weather on mobile